sensor_id;sensor_type;location;lat;lon;timestamp;temperature;humidity
51011;DHT22;37038;50.182;8.624;2022-11-21T00:05:21;5.70;99.90
51011;DHT22;37038;50.182;8.624;2022-11-21T00:08:29;5.70;99.90
51011;DHT22;37038;50.182;8.624;2022-11-21T00:12:20;5.80;99.90
51011;DHT22;37038;50.182;8.624;2022-11-21T00:15:33;5.70;99.90
51011;DHT22;37038;50.182;8.624;2022-11-21T00:22:56;5.70;99.90
51011;DHT22;37038;50.182;8.624;2022-11-21T00:30:35;5.70;99.90
51011;DHT22;37038;50.182;8.624;2022-11-21T00:34:33;5.60;99.90
51011;DHT22;37038;50.182;8.624;2022-11-21T00:38:04;5.70;99.90
51011;DHT22;37038;50.182;8.624;2022-11-21T00:41:51;5.70;99.90
51011;DHT22;37038;50.182;8.624;2022-11-21T00:49:32;5.70;99.90
51011;DHT22;37038;50.182;8.624;2022-11-21T01:01:08;5.70;99.90
51011;DHT22;37038;50.182;8.624;2022-11-21T01:10:39;5.80;99.90
51011;DHT22;37038;50.182;8.624;2022-11-21T01:33:29;5.70;99.90
51011;DHT22;37038;50.182;8.624;2022-11-21T01:37:14;5.70;99.90
51011;DHT22;37038;50.182;8.624;2022-11-21T01:49:48;5.70;99.90
51011;DHT22;37038;50.182;8.624;2022-11-21T01:57:47;5.70;99.90
51011;DHT22;37038;50.182;8.624;2022-11-21T02:10:05;5.80;99.90
51011;DHT22;37038;50.182;8.624;2022-11-21T02:26:14;5.90;99.90
51011;DHT22;37038;50.182;8.624;2022-11-21T02:30:48;5.80;99.90
51011;DHT22;37038;50.182;8.624;2022-11-21T02:34:51;5.80;99.90
51011;DHT22;37038;50.182;8.624;2022-11-21T02:42:27;5.70;99.90
51011;DHT22;37038;50.182;8.624;2022-11-21T02:46:52;5.70;99.90
51011;DHT22;37038;50.182;8.624;2022-11-21T03:00:36;5.60;99.90
51011;DHT22;37038;50.182;8.624;2022-11-21T03:12:12;5.60;99.90
51011;DHT22;37038;50.182;8.624;2022-11-21T03:18:17;5.40;99.90
51011;DHT22;37038;50.182;8.624;2022-11-21T03:21:39;5.40;99.90
51011;DHT22;37038;50.182;8.624;2022-11-21T03:24:48;5.30;99.90
51011;DHT22;37038;50.182;8.624;2022-11-21T03:27:56;5.30;99.90
51011;DHT22;37038;50.182;8.624;2022-11-21T03:30:46;5.30;99.90
51011;DHT22;37038;50.182;8.624;2022-11-21T03:33:45;5.30;99.90
51011;DHT22;37038;50.182;8.624;2022-11-21T03:37:16;5.30;99.90
51011;DHT22;37038;50.182;8.624;2022-11-21T03:40:30;5.40;99.90
51011;DHT22;37038;50.182;8.624;2022-11-21T03:43:37;5.40;99.90
51011;DHT22;37038;50.182;8.624;2022-11-21T03:47:12;5.40;99.90
51011;DHT22;37038;50.182;8.624;2022-11-21T03:50:35;5.50;99.90
51011;DHT22;37038;50.182;8.624;2022-11-21T03:53:35;5.50;99.90
51011;DHT22;37038;50.182;8.624;2022-11-21T03:56:32;5.50;99.90
51011;DHT22;37038;50.182;8.624;2022-11-21T03:59:47;5.50;99.90
51011;DHT22;37038;50.182;8.624;2022-11-21T04:02:56;5.60;99.90
51011;DHT22;37038;50.182;8.624;2022-11-21T04:06:46;5.70;99.90
51011;DHT22;37038;50.182;8.624;2022-11-21T04:10:19;5.80;99.90
51011;DHT22;37038;50.182;8.624;2022-11-21T04:13:17;5.90;99.90
51011;DHT22;37038;50.182;8.624;2022-11-21T04:20:23;6.00;99.90
51011;DHT22;37038;50.182;8.624;2022-11-21T04:24:04;6.10;99.90
51011;DHT22;37038;50.182;8.624;2022-11-21T04:27:30;6.20;99.90
51011;DHT22;37038;50.182;8.624;2022-11-21T04:30:30;6.10;99.90
51011;DHT22;37038;50.182;8.624;2022-11-21T04:33:33;6.10;99.90
51011;DHT22;37038;50.182;8.624;2022-11-21T04:44:39;6.10;99.90
51011;DHT22;37038;50.182;8.624;2022-11-21T04:47:49;6.00;99.90
51011;DHT22;37038;50.182;8.624;2022-11-21T04:51:06;5.90;99.90
51011;DHT22;37038;50.182;8.624;2022-11-21T04:54:03;5.80;99.90
51011;DHT22;37038;50.182;8.624;2022-11-21T04:57:34;5.90;99.90
51011;DHT22;37038;50.182;8.624;2022-11-21T05:01:04;5.80;99.90
51011;DHT22;37038;50.182;8.624;2022-11-21T05:04:20;5.90;99.90
51011;DHT22;37038;50.182;8.624;2022-11-21T05:07:21;5.80;99.90
51011;DHT22;37038;50.182;8.624;2022-11-21T05:10:17;5.80;99.90
51011;DHT22;37038;50.182;8.624;2022-11-21T05:13:09;5.80;99.90
51011;DHT22;37038;50.182;8.624;2022-11-21T05:19:52;5.70;99.90
51011;DHT22;37038;50.182;8.624;2022-11-21T05:22:48;5.70;99.90
51011;DHT22;37038;50.182;8.624;2022-11-21T05:26:05;5.60;99.90
51011;DHT22;37038;50.182;8.624;2022-11-21T05:28:57;5.60;99.90
51011;DHT22;37038;50.182;8.624;2022-11-21T05:31:51;5.60;99.90
51011;DHT22;37038;50.182;8.624;2022-11-21T05:34:43;5.50;99.90
51011;DHT22;37038;50.182;8.624;2022-11-21T05:40:56;5.40;99.90
51011;DHT22;37038;50.182;8.624;2022-11-21T05:43:58;5.40;99.90
51011;DHT22;37038;50.182;8.624;2022-11-21T05:47:13;5.50;99.90
51011;DHT22;37038;50.182;8.624;2022-11-21T05:58:13;5.30;99.90
51011;DHT22;37038;50.182;8.624;2022-11-21T06:01:09;5.30;99.90
51011;DHT22;37038;50.182;8.624;2022-11-21T06:04:15;5.40;99.90
51011;DHT22;37038;50.182;8.624;2022-11-21T06:07:27;5.30;99.90
51011;DHT22;37038;50.182;8.624;2022-11-21T06:10:23;5.30;99.90
51011;DHT22;37038;50.182;8.624;2022-11-21T06:13:36;5.30;99.90
51011;DHT22;37038;50.182;8.624;2022-11-21T06:17:06;5.20;99.90
51011;DHT22;37038;50.182;8.624;2022-11-21T06:20:23;5.10;99.90
51011;DHT22;37038;50.182;8.624;2022-11-21T06:23:45;5.00;99.90
51011;DHT22;37038;50.182;8.624;2022-11-21T06:27:04;4.90;99.90
51011;DHT22;37038;50.182;8.624;2022-11-21T06:30:30;4.90;99.90
51011;DHT22;37038;50.182;8.624;2022-11-21T06:33:39;4.90;99.90
51011;DHT22;37038;50.182;8.624;2022-11-21T06:36:51;4.90;99.90
51011;DHT22;37038;50.182;8.624;2022-11-21T06:40:01;4.90;99.90
51011;DHT22;37038;50.182;8.624;2022-11-21T06:42:51;4.80;99.90
51011;DHT22;37038;50.182;8.624;2022-11-21T06:45:54;4.90;99.90
51011;DHT22;37038;50.182;8.624;2022-11-21T06:49:30;4.80;99.90
51011;DHT22;37038;50.182;8.624;2022-11-21T06:52:50;4.80;99.90
51011;DHT22;37038;50.182;8.624;2022-11-21T06:55:50;4.70;99.90
51011;DHT22;37038;50.182;8.624;2022-11-21T06:58:46;4.70;99.90
51011;DHT22;37038;50.182;8.624;2022-11-21T07:01:43;4.70;99.90
51011;DHT22;37038;50.182;8.624;2022-11-21T07:05:24;4.70;99.90
51011;DHT22;37038;50.182;8.624;2022-11-21T07:08:24;4.80;99.90
51011;DHT22;37038;50.182;8.624;2022-11-21T07:11:38;4.90;99.90
51011;DHT22;37038;50.182;8.624;2022-11-21T07:15:43;4.90;99.90
51011;DHT22;37038;50.182;8.624;2022-11-21T07:18:53;5.00;99.90
51011;DHT22;37038;50.182;8.624;2022-11-21T07:22:12;5.00;99.90
51011;DHT22;37038;50.182;8.624;2022-11-21T07:25:20;5.10;99.90
51011;DHT22;37038;50.182;8.624;2022-11-21T07:28:49;5.10;99.90
51011;DHT22;37038;50.182;8.624;2022-11-21T07:31:42;5.10;99.90
51011;DHT22;37038;50.182;8.624;2022-11-21T07:34:48;5.20;99.90
51011;DHT22;37038;50.182;8.624;2022-11-21T07:37:53;5.20;99.90
51011;DHT22;37038;50.182;8.624;2022-11-21T07:40:47;5.30;99.90
51011;DHT22;37038;50.182;8.624;2022-11-21T07:43:45;5.40;99.90
51011;DHT22;37038;50.182;8.624;2022-11-21T07:46:36;5.50;99.90
51011;DHT22;37038;50.182;8.624;2022-11-21T07:49:25;5.50;99.90
51011;DHT22;37038;50.182;8.624;2022-11-21T07:52:32;5.70;99.90
51011;DHT22;37038;50.182;8.624;2022-11-21T07:55:32;6.00;99.90
51011;DHT22;37038;50.182;8.624;2022-11-21T07:58:56;6.00;99.90
51011;DHT22;37038;50.182;8.624;2022-11-21T08:01:53;6.10;99.90
51011;DHT22;37038;50.182;8.624;2022-11-21T08:04:47;6.30;99.90
51011;DHT22;37038;50.182;8.624;2022-11-21T08:07:48;6.40;99.90
51011;DHT22;37038;50.182;8.624;2022-11-21T08:10:51;6.40;99.90
51011;DHT22;37038;50.182;8.624;2022-11-21T08:13:45;6.30;99.90
51011;DHT22;37038;50.182;8.624;2022-11-21T08:16:51;6.20;99.90
51011;DHT22;37038;50.182;8.624;2022-11-21T08:28:25;6.10;99.90
51011;DHT22;37038;50.182;8.624;2022-11-21T08:31:28;6.00;99.90
51011;DHT22;37038;50.182;8.624;2022-11-21T08:34:36;6.30;99.90
51011;DHT22;37038;50.182;8.624;2022-11-21T08:38:02;6.30;99.90
51011;DHT22;37038;50.182;8.624;2022-11-21T08:41:07;6.20;99.90
51011;DHT22;37038;50.182;8.624;2022-11-21T08:44:56;6.20;99.90
51011;DHT22;37038;50.182;8.624;2022-11-21T08:47:54;6.20;99.90
51011;DHT22;37038;50.182;8.624;2022-11-21T08:51:07;6.20;99.90
51011;DHT22;37038;50.182;8.624;2022-11-21T08:54:06;6.30;99.90
51011;DHT22;37038;50.182;8.624;2022-11-21T08:57:00;6.60;99.90
51011;DHT22;37038;50.182;8.624;2022-11-21T09:00:28;6.60;99.90
51011;DHT22;37038;50.182;8.624;2022-11-21T09:05:58;9.30;99.90
51011;DHT22;37038;50.182;8.624;2022-11-21T09:09:21;8.60;99.90
51011;DHT22;37038;50.182;8.624;2022-11-21T09:12:38;7.70;99.90
51011;DHT22;37038;50.182;8.624;2022-11-21T09:15:51;7.40;99.90
51011;DHT22;37038;50.182;8.624;2022-11-21T09:19:30;6.90;99.90
51011;DHT22;37038;50.182;8.624;2022-11-21T09:25:53;6.60;99.90
51011;DHT22;37038;50.182;8.624;2022-11-21T09:29:06;6.80;99.90
51011;DHT22;37038;50.182;8.624;2022-11-21T09:32:27;6.90;99.90
51011;DHT22;37038;50.182;8.624;2022-11-21T09:35:45;6.80;99.90
51011;DHT22;37038;50.182;8.624;2022-11-21T09:39:48;6.90;99.90
51011;DHT22;37038;50.182;8.624;2022-11-21T09:43:25;7.30;99.90
51011;DHT22;37038;50.182;8.624;2022-11-21T10:29:56;8.10;99.90
51011;DHT22;37038;50.182;8.624;2022-11-21T10:33:41;8.70;99.90
51011;DHT22;37038;50.182;8.624;2022-11-21T10:36:57;8.80;99.90
51011;DHT22;37038;50.182;8.624;2022-11-21T10:44:50;8.60;99.90
51011;DHT22;37038;50.182;8.624;2022-11-21T10:53:21;12.20;99.90
51011;DHT22;37038;50.182;8.624;2022-11-21T11:01:52;9.00;99.90
51011;DHT22;37038;50.182;8.624;2022-11-21T11:09:46;8.60;99.90
51011;DHT22;37038;50.182;8.624;2022-11-21T11:13:31;8.70;99.90
51011;DHT22;37038;50.182;8.624;2022-11-21T11:17:36;9.50;99.90
51011;DHT22;37038;50.182;8.624;2022-11-21T11:30:20;8.90;99.90
51011;DHT22;37038;50.182;8.624;2022-11-21T11:33:54;9.00;99.90
51011;DHT22;37038;50.182;8.624;2022-11-21T11:48:06;8.10;99.90
51011;DHT22;37038;50.182;8.624;2022-11-21T11:51:40;8.00;99.90
51011;DHT22;37038;50.182;8.624;2022-11-21T11:55:07;8.00;99.90
51011;DHT22;37038;50.182;8.624;2022-11-21T12:01:56;8.00;99.90
51011;DHT22;37038;50.182;8.624;2022-11-21T12:09:31;8.20;99.90
51011;DHT22;37038;50.182;8.624;2022-11-21T12:16:54;8.20;99.90
51011;DHT22;37038;50.182;8.624;2022-11-21T12:20:27;7.90;99.90
51011;DHT22;37038;50.182;8.624;2022-11-21T12:35:44;9.30;99.90
51011;DHT22;37038;50.182;8.624;2022-11-21T12:45:41;8.10;99.90
51011;DHT22;37038;50.182;8.624;2022-11-21T12:52:40;8.20;99.90
51011;DHT22;37038;50.182;8.624;2022-11-21T12:55:56;8.10;99.90
51011;DHT22;37038;50.182;8.624;2022-11-21T12:59:01;8.20;99.90
51011;DHT22;37038;50.182;8.624;2022-11-21T13:05:38;9.20;99.90
51011;DHT22;37038;50.182;8.624;2022-11-21T13:09:16;11.00;99.90
51011;DHT22;37038;50.182;8.624;2022-11-21T13:12:36;12.40;99.90
51011;DHT22;37038;50.182;8.624;2022-11-21T13:16:22;12.50;99.90
51011;DHT22;37038;50.182;8.624;2022-11-21T13:19:43;11.70;99.90
51011;DHT22;37038;50.182;8.624;2022-11-21T13:24:03;12.00;99.90
51011;DHT22;37038;50.182;8.624;2022-11-21T13:27:10;12.40;99.90
51011;DHT22;37038;50.182;8.624;2022-11-21T13:31:36;10.40;99.90
51011;DHT22;37038;50.182;8.624;2022-11-21T13:34:36;9.70;99.90
51011;DHT22;37038;50.182;8.624;2022-11-21T13:38:07;10.30;99.90
51011;DHT22;37038;50.182;8.624;2022-11-21T13:41:02;10.00;99.90
51011;DHT22;37038;50.182;8.624;2022-11-21T13:44:39;9.40;99.90
51011;DHT22;37038;50.182;8.624;2022-11-21T13:47:41;9.80;99.90
51011;DHT22;37038;50.182;8.624;2022-11-21T14:02:52;10.10;99.90
51011;DHT22;37038;50.182;8.624;2022-11-21T14:06:42;9.70;99.90
51011;DHT22;37038;50.182;8.624;2022-11-21T14:09:54;9.10;99.90
51011;DHT22;37038;50.182;8.624;2022-11-21T14:12:56;9.10;99.90
51011;DHT22;37038;50.182;8.624;2022-11-21T14:16:43;9.30;99.90
51011;DHT22;37038;50.182;8.624;2022-11-21T14:24:10;9.50;99.90
51011;DHT22;37038;50.182;8.624;2022-11-21T14:27:55;10.10;99.90
51011;DHT22;37038;50.182;8.624;2022-11-21T14:31:16;11.10;99.90
51011;DHT22;37038;50.182;8.624;2022-11-21T14:55:20;8.30;99.90
51011;DHT22;37038;50.182;8.624;2022-11-21T14:59:29;8.10;99.90
51011;DHT22;37038;50.182;8.624;2022-11-21T15:02:42;7.90;99.90
51011;DHT22;37038;50.182;8.624;2022-11-21T15:06:15;7.70;99.90
51011;DHT22;37038;50.182;8.624;2022-11-21T15:09:43;7.60;99.90
51011;DHT22;37038;50.182;8.624;2022-11-21T15:22:39;7.40;99.90
51011;DHT22;37038;50.182;8.624;2022-11-21T15:52:30;7.20;99.90
51011;DHT22;37038;50.182;8.624;2022-11-21T15:56:58;7.10;99.90
51011;DHT22;37038;50.182;8.624;2022-11-21T16:32:51;6.70;99.90
51011;DHT22;37038;50.182;8.624;2022-11-21T16:41:28;6.30;99.90
51011;DHT22;37038;50.182;8.624;2022-11-21T16:49:50;6.20;99.90
51011;DHT22;37038;50.182;8.624;2022-11-21T17:03:09;6.40;99.90
51011;DHT22;37038;50.182;8.624;2022-11-21T18:28:14;6.20;99.90
51011;DHT22;37038;50.182;8.624;2022-11-21T18:35:35;6.40;99.90
51011;DHT22;37038;50.182;8.624;2022-11-21T18:46:12;6.50;99.90
51011;DHT22;37038;50.182;8.624;2022-11-21T18:49:22;6.40;99.90
51011;DHT22;37038;50.182;8.624;2022-11-21T18:52:28;6.30;99.90
51011;DHT22;37038;50.182;8.624;2022-11-21T18:59:11;5.80;99.90
51011;DHT22;37038;50.182;8.624;2022-11-21T19:02:26;5.80;99.90
51011;DHT22;37038;50.182;8.624;2022-11-21T19:05:36;5.60;99.90
51011;DHT22;37038;50.182;8.624;2022-11-21T19:08:57;5.90;99.90
51011;DHT22;37038;50.182;8.624;2022-11-21T19:12:27;5.80;99.90
51011;DHT22;37038;50.182;8.624;2022-11-21T19:15:40;5.90;99.90
51011;DHT22;37038;50.182;8.624;2022-11-21T19:18:51;6.10;99.90
51011;DHT22;37038;50.182;8.624;2022-11-21T19:22:18;6.00;99.90
51011;DHT22;37038;50.182;8.624;2022-11-21T19:25:23;5.80;99.90
51011;DHT22;37038;50.182;8.624;2022-11-21T19:28:50;5.80;99.90
51011;DHT22;37038;50.182;8.624;2022-11-21T19:32:08;6.00;99.90
51011;DHT22;37038;50.182;8.624;2022-11-21T19:35:24;6.00;99.90
51011;DHT22;37038;50.182;8.624;2022-11-21T19:38:52;6.20;99.90
51011;DHT22;37038;50.182;8.624;2022-11-21T19:42:04;6.40;99.90
51011;DHT22;37038;50.182;8.624;2022-11-21T19:48:37;6.30;99.90
51011;DHT22;37038;50.182;8.624;2022-11-21T19:59:28;6.60;99.90
51011;DHT22;37038;50.182;8.624;2022-11-21T20:02:42;6.70;99.90
51011;DHT22;37038;50.182;8.624;2022-11-21T20:10:26;6.90;99.90
51011;DHT22;37038;50.182;8.624;2022-11-21T20:14:02;6.90;99.90
51011;DHT22;37038;50.182;8.624;2022-11-21T20:17:24;6.90;99.90
51011;DHT22;37038;50.182;8.624;2022-11-21T20:30:00;6.90;99.90
51011;DHT22;37038;50.182;8.624;2022-11-21T20:34:00;6.90;99.90
51011;DHT22;37038;50.182;8.624;2022-11-21T20:37:27;7.00;99.90
51011;DHT22;37038;50.182;8.624;2022-11-21T20:44:34;6.80;99.90
51011;DHT22;37038;50.182;8.624;2022-11-21T20:48:46;6.80;99.90
51011;DHT22;37038;50.182;8.624;2022-11-21T20:52:58;6.80;99.90
51011;DHT22;37038;50.182;8.624;2022-11-21T21:17:26;7.20;99.90
51011;DHT22;37038;50.182;8.624;2022-11-21T21:20:31;6.80;99.90
51011;DHT22;37038;50.182;8.624;2022-11-21T21:23:45;6.20;99.90
51011;DHT22;37038;50.182;8.624;2022-11-21T21:26:43;6.00;99.90
51011;DHT22;37038;50.182;8.624;2022-11-21T21:29:40;6.10;99.90
51011;DHT22;37038;50.182;8.624;2022-11-21T21:32:34;6.10;99.90
51011;DHT22;37038;50.182;8.624;2022-11-21T21:35:23;6.10;99.90
51011;DHT22;37038;50.182;8.624;2022-11-21T21:38:28;6.20;99.90
51011;DHT22;37038;50.182;8.624;2022-11-21T21:42:07;6.00;99.90
51011;DHT22;37038;50.182;8.624;2022-11-21T21:45:04;6.10;99.90
51011;DHT22;37038;50.182;8.624;2022-11-21T21:47:55;6.30;99.90
51011;DHT22;37038;50.182;8.624;2022-11-21T21:50:44;6.30;99.90
51011;DHT22;37038;50.182;8.624;2022-11-21T21:53:36;6.10;99.90
51011;DHT22;37038;50.182;8.624;2022-11-21T22:03:32;6.00;99.90
51011;DHT22;37038;50.182;8.624;2022-11-21T22:06:46;5.70;99.90
51011;DHT22;37038;50.182;8.624;2022-11-21T22:19:24;5.40;99.90
51011;DHT22;37038;50.182;8.624;2022-11-21T22:37:26;5.40;99.90
51011;DHT22;37038;50.182;8.624;2022-11-21T22:45:54;5.30;99.90
51011;DHT22;37038;50.182;8.624;2022-11-21T23:14:30;6.10;99.90
51011;DHT22;37038;50.182;8.624;2022-11-21T23:17:39;5.80;99.90
51011;DHT22;37038;50.182;8.624;2022-11-21T23:20:53;5.70;99.90
51011;DHT22;37038;50.182;8.624;2022-11-21T23:24:02;5.90;99.90
51011;DHT22;37038;50.182;8.624;2022-11-21T23:27:05;6.00;99.90
51011;DHT22;37038;50.182;8.624;2022-11-21T23:30:02;5.90;99.90
51011;DHT22;37038;50.182;8.624;2022-11-21T23:39:23;5.90;99.90
51011;DHT22;37038;50.182;8.624;2022-11-21T23:42:41;5.80;99.90
51011;DHT22;37038;50.182;8.624;2022-11-21T23:46:19;5.90;99.90
51011;DHT22;37038;50.182;8.624;2022-11-21T23:53:53;5.70;99.90
51011;DHT22;37038;50.182;8.624;2022-11-21T23:57:46;5.70;99.90
